Decoded Metar for LRCV (CRAIOVA in ROMANIA) (IATA:CRA) | Meteo·Mobile Aviation Weather
aviador You're here:

LRCV Decoded Metar

CRAIOVA in ROMANIA
Report Time2018-10-23 11:00:00
UTC Time2018-10-23 11:26:59
Flight Rules vfr VFR
Wind210° at 07 kt
W.Decomp.*RWY 27: 3.2 kt HW 6.2 kt LCW
W.Rank210° ranks 23
Current wind is above 210° avg. (5.1)
Visibility9999 m
Phenomena:N/A
Clouds:N/A
Expected CloudBase > 4,000 ft AGL from Temp-Dew spread
CeilingNone
Temp17°C (ISA +3)
Dew Point07°C (52% RH)
AAT13.8°C
QNH1019 hPa
Density Alt945 ft
Elevation627 ft
Report Wrong Elevation
Raw Report
METAR LRCV 231100Z 21007KT 180V240 CAVOK 17/07 Q1019=

Extra information for LRCV:More info

Metar Taf Metar & Taf Last 4 Metars F.Rules Stats Wind Profile Meteogram Temp Stats Airport Information Weather charts Add Link Nearby VenuesMetar ALERT Operation Metar Decoded Social comments